27. September 2022

Uhrzeit Code Wetter Temp. Sichtweite Wolkendecke Wind METAR/SPECI
03:30
V
12 °C 10 km+ 5.400 ft 300° 300° 7 kt METAR LFSL 270130Z AUTO 30007KT 9999 FEW010 SCT016 OVC054 12/11 Q1010
03:00
M
13 °C 10 km+ 1.000 ft 290° 290° 7 kt METAR LFSL 270100Z AUTO 29007KT 260V320 9999 BKN010 OVC015 13/12 Q1010
02:30
I
13 °C 10 km+ 700 ft 290° 290° 7 kt METAR LFSL 270030Z AUTO 29007KT 250V320 9999 OVC007 13/12 Q1010
02:00
I
13 °C 10 km+ 800 ft 290° 290° 8 kt METAR LFSL 270000Z AUTO 29008KT 240V320 9999 BKN008 BKN024 BKN058 13/12 Q1010
01:30
I
13 °C 10 km+ 900 ft 280° 280° 8 kt METAR LFSL 262330Z AUTO 28008KT 230V330 9999 BKN009 BKN013 OVC018 13/12 Q1009
01:00
I
13 °C 10 km+ 700 ft 250° 250° 4 kt METAR LFSL 262300Z AUTO 25004KT 180V310 9999 BKN007 OVC013 13/12 Q1009
00:30
I
13 °C 10 km+ 700 ft 240° 240° 6 kt METAR LFSL 262230Z AUTO 24006KT 190V300 9999 BKN007 BKN012 OVC018 13/12 Q1010
00:00
I
13 °C 10 km+ 600 ft Var Var 6 kt METAR LFSL 262200Z AUTO VRB06KT 9999 OVC006 13/12 Q1010

26. September 2022

Uhrzeit Code Wetter Temp. Sichtweite Wolkendecke Wind METAR/SPECI
23:30
I
12 °C 4,5 km 500 ft 270° 270° 6 kt METAR LFSL 262130Z AUTO 27006KT 180V310 4500 -RADZ BR OVC005 12/12 Q1010
23:00
I
12 °C 4,5 km 2.000 ft 220° 220° 6 kt METAR LFSL 262100Z AUTO 22006KT 140V270 4500 -RA BR FEW008/// BKN020/// OVC028/// //////TCU 12/11 Q1010
22:30
I
13 °C 4,4 km 2.000 ft 230° 230° 6 - 18 kt METAR LFSL 262030Z AUTO 23006G18KT 170V290 4400 RA BR BKN020/// BKN025/// BKN031/// //////TCU 13/11 Q1010
22:00
V
14 °C 10 km+ 4.400 ft 250° 250° 8 kt METAR LFSL 262000Z AUTO 25008KT 160V310 9999 -RA SCT032/// BKN044/// BKN050/// //////TCU 14/09 Q1010 TEMPO 4000 RA BKN018
21:30
V
15 °C 10 km+ 3.500 ft 260° 260° 7 kt METAR LFSL 261930Z AUTO 26007KT 190V310 9999 -RA BKN035/// BKN042/// OVC060/// //////TCU 15/08 Q1010 TEMPO 4000 RA BKN018
21:00
V
16 °C 10 km+ 5.200 ft 250° 250° 6 kt METAR LFSL 261900Z AUTO 25006KT 190V310 9999 FEW039/// SCT045/// BKN052/// //////TCU 16/07 Q1010 TEMPO 4000 RA BKN018
20:30
V
16 °C 10 km+ 4.800 ft 250° 250° 7 - 19 kt METAR LFSL 261830Z AUTO 25007G19KT 190V330 9999 BKN048 BKN054 OVC072 16/07 Q1010 TEMPO 4000 RA
20:00
V
17 °C 10 km+ - 250° 250° 5 kt METAR LFSL 261800Z AUTO 25005KT 180V330 CAVOK 17/08 Q1010 TEMPO 4000 RA
19:30
V
17 °C 10 km+ - 250° 250° 7 kt METAR LFSL 261730Z AUTO 25007KT 180V310 CAVOK 17/08 Q1010 TEMPO 4000 RA
19:00
V
17 °C 10 km+ - 250° 250° 8 kt METAR LFSL 261700Z AUTO 25008KT 180V310 CAVOK 17/07 Q1011 NOSIG
18:30
V
18 °C 10 km+ 6.800 ft 270° 270° 7 kt METAR LFSL 261630Z AUTO 27007KT 220V330 9999 SCT049 BKN068 18/07 Q1011 NOSIG
18:00
V
18 °C 10 km+ 6.800 ft 240° 240° 7 kt METAR LFSL 261600Z AUTO 24007KT 180V300 9999 FEW045 BKN068 BKN140 18/08 Q1011 NOSIG
17:30
V
18 °C 10 km+ 5.800 ft 270° 270° 8 - 20 kt METAR LFSL 261530Z AUTO 27008G20KT 210V340 9999 SCT044 BKN058 BKN068 18/08 Q1011 NOSIG
17:00
V
17 °C 10 km+ 4.100 ft 260° 260° 8 kt METAR LFSL 261500Z AUTO 26008KT 190V310 9999 BKN041 BKN054 BKN066 17/08 Q1012 NOSIG
16:30
V
17 °C 10 km+ 6.400 ft 260° 260° 8 kt METAR LFSL 261430Z AUTO 26008KT 170V320 9999 FEW037 BKN064 BKN130 17/08 Q1012 NOSIG
16:00
V
17 °C 10 km+ 4.000 ft 250° 250° 4 kt METAR LFSL 261400Z AUTO 25004KT 190V300 9999 BKN040 BKN054 BKN066 17/09 Q1012 NOSIG
15:30
V
18 °C 10 km+ 16.000 ft 270° 270° 8 kt METAR LFSL 261330Z AUTO 27008KT 210V340 9999 FEW041 SCT066 BKN160 18/08 Q1012 NOSIG
15:00
V
18 °C 10 km+ 6.400 ft Var Var 6 kt METAR LFSL 261300Z AUTO VRB06KT 9999 FEW037 SCT052 BKN064 18/09 Q1012 NOSIG
14:30
V
18 °C 10 km+ 3.700 ft 260° 260° 6 kt METAR LFSL 261230Z AUTO 26006KT 190V320 9999 BKN037 BKN045 OVC062 18/08 Q1013 NOSIG
14:00
V
17 °C 10 km+ 3.500 ft 230° 230° 7 kt METAR LFSL 261200Z AUTO 23007KT 180V350 9999 BKN035 BKN042 BKN062 17/08 Q1013 NOSIG
13:30
V
18 °C 10 km+ 3.800 ft 270° 270° 8 kt METAR LFSL 261130Z AUTO 27008KT 210V310 9999 FEW030 BKN038 BKN044 18/08 Q1014 NOSIG
13:00
M
16 °C 10 km+ 2.500 ft 260° 260° 5 kt METAR LFSL 261100Z AUTO 26005KT 170V320 9999 BKN025 BKN034 16/09 Q1014 NOSIG
12:30
M
15 °C 10 km+ 1.900 ft 250° 250° 4 kt METAR LFSL 261030Z AUTO 25004KT 150V310 9999 BKN019 15/10 Q1014 NOSIG
12:00
M
14 °C 10 km+ 1.700 ft 180° 180° 4 kt METAR LFSL 261000Z AUTO 18004KT 130V240 9999 SCT009 BKN017 14/11 Q1014 TEMPO BKN004
11:30
L
12 °C 10 km+ 400 ft 170° 170° 4 kt METAR LFSL 260930Z AUTO 17004KT 120V200 9999 BKN004 12/11 Q1014 BECMG FEW035
11:00
L
11 °C 10 km+ 200 ft Var Var 3 kt METAR LFSL 260900Z AUTO VRB03KT 9999 OVC002 11/10 Q1014 BECMG FEW035
10:30
L
11 °C 5 km 100 ft Var Var 2 kt METAR LFSL 260830Z AUTO VRB02KT 5000 BR OVC001 11/10 Q1014 BECMG SCT015
10:00
L
10 °C 500 m - Var Var 3 kt METAR LFSL 260800Z AUTO VRB03KT 0500 R29/0800D FG VV/// 10/10 Q1014 BECMG 7000 NSW SCT015
09:30
L
9 °C 550 m - 140° 140° 3 kt METAR LFSL 260730Z AUTO 14003KT 100V200 0600 0550 R29/0800U FG VV/// 09/09 Q1014 BECMG 7000 NSW SCT015
09:00
L
9 °C 1,1 km - Var Var 2 kt METAR LFSL 260700Z AUTO VRB02KT 1300 1100 R29/1600D BR VV/// 09/09 Q1014 BECMG 0600 FG BKN003
08:30
L
9 °C 800 m - Var 000° 0 kt METAR LFSL 260630Z AUTO 00000KT 0800 R29/1300D FG VV/// 09/09 Q1014 TEMPO 0300 FG BECMG BKN003
08:00
L
9 °C 600 m - Var 000° 0 kt METAR LFSL 260600Z AUTO 00000KT 0600 R29/0750N FG VV/// 09/09 Q1014 TEMPO 0300 FG
07:30
L
9 °C 650 m - Var Var 2 kt METAR LFSL 260530Z AUTO VRB02KT 0650 R29/0800U FG VV/// 09/09 Q1014 TEMPO 0300 FG
07:00
L
9 °C 450 m - 320° 320° 5 kt METAR LFSL 260500Z AUTO 32005KT 0450 R29/0550N FG VV/// 09/09 Q1014 TEMPO 0300 FG
06:30
L
9 °C 300 m - 310° 310° 3 kt METAR LFSL 260430Z AUTO 31003KT 0300 R29/0350N FG VV/// 09/09 Q1014 NOSIG
06:00
L
10 °C 300 m - 330° 330° 4 kt METAR LFSL 260400Z AUTO 33004KT 290V350 0300 R29/0350N FG VV/// 10/09 Q1014 NOSIG
05:30
L
10 °C 450 m - 290° 290° 3 kt METAR LFSL 260330Z AUTO 29003KT 0450 R29/0500N FG VV/// 10/09 Q1015 TEMPO 0300 FG
05:00
L
10 °C 600 m - 310° 310° 4 kt METAR LFSL 260300Z AUTO 31004KT 2100 0600 R29/0750D BCFG VV/// 10/09 Q1015 TEMPO 0300 FG NSC
04:30
L
9 °C 2,2 km 100 ft 320° 320° 3 kt METAR LFSL 260230Z AUTO 32003KT 5000 2200 BR BKN001 09/08 Q1015
04:00
M
10 °C 6 km - Var Var 3 kt METAR LFSL 260200Z AUTO VRB03KT 6000 NSC 10/09 Q1015
03:30
V
9 °C 8 km - 310° 310° 5 kt METAR LFSL 260130Z AUTO 31005KT 8000 NSC 09/09 Q1015
03:00
V
10 °C 10 km+ - Var 000° 0 kt METAR LFSL 260100Z AUTO 00000KT CAVOK 10/09 Q1015
02:30
V
11 °C 10 km+ - 310° 310° 3 kt METAR LFSL 260030Z AUTO 31003KT CAVOK 11/10 Q1015
02:00
V
11 °C 10 km+ - Var Var 2 kt METAR LFSL 260000Z AUTO VRB02KT CAVOK 11/10 Q1015
01:30
V
12 °C 10 km+ - 340° 340° 3 kt METAR LFSL 252330Z AUTO 34003KT CAVOK 12/10 Q1016
01:00
V
13 °C 10 km+ - 330° 330° 5 kt METAR LFSL 252300Z AUTO 33005KT CAVOK 13/11 Q1016
00:30
V
13 °C 10 km+ - 340° 340° 4 kt METAR LFSL 252230Z AUTO 34004KT CAVOK 13/11 Q1016
00:00
V
13 °C 10 km+ - 320° 320° 5 kt METAR LFSL 252200Z AUTO 32005KT CAVOK 13/11 Q1016

25. September 2022

Uhrzeit Code Wetter Temp. Sichtweite Wolkendecke Wind METAR/SPECI
23:30
V
13 °C 10 km+ - 310° 310° 4 kt METAR LFSL 252130Z AUTO 31004KT CAVOK 13/11 Q1016
23:00
V
14 °C 10 km+ - 330° 330° 6 kt METAR LFSL 252100Z AUTO 33006KT CAVOK 14/11 Q1017
22:30
V
14 °C 10 km+ - 320° 320° 5 kt METAR LFSL 252030Z AUTO 32005KT CAVOK 14/11 Q1017
22:00
V
14 °C 10 km+ - 340° 340° 6 kt METAR LFSL 252000Z AUTO 34006KT CAVOK 14/11 Q1016 NOSIG
21:30
V
14 °C 10 km+ 6.800 ft 350° 350° 5 kt METAR LFSL 251930Z AUTO 35005KT 9999 SCT046 OVC068 14/11 Q1016 NOSIG
21:00
V
14 °C 10 km+ - 360° 360° 3 kt METAR LFSL 251900Z AUTO 36003KT 340V040 CAVOK 14/11 Q1016 NOSIG
20:30
V
14 °C 10 km+ 3.400 ft 020° 020° 4 kt METAR LFSL 251830Z AUTO 02004KT 350V060 9999 FEW023 BKN034 OVC068 14/11 Q1016 NOSIG
20:00
V
15 °C 10 km+ 3.200 ft 030° 030° 5 kt METAR LFSL 251800Z AUTO 03005KT 9999 SCT024 BKN032 OVC038 15/11 Q1016 NOSIG
19:30
V
16 °C 10 km+ 3.500 ft 020° 020° 7 kt METAR LFSL 251730Z AUTO 02007KT 330V060 9999 BKN035 OVC042 16/10 Q1015 NOSIG
19:00
V
17 °C 10 km+ 4.500 ft 310° 310° 7 kt METAR LFSL 251700Z AUTO 31007KT 9999 FEW035 BKN045 BKN052 17/09 Q1015 TEMPO BKN015TCU
18:30
V
17 °C 10 km+ 4.000 ft 290° 290° 6 kt METAR LFSL 251630Z AUTO 29006KT 250V310 9999 BKN040/// BKN046/// //////TCU 17/09 Q1015 BECMG BKN035
18:00
V
17 °C 10 km+ 3.900 ft 290° 290° 9 kt METAR LFSL 251600Z AUTO 29009KT 250V330 9999 FEW033/// BKN039/// //////CB 17/09 Q1015 NOSIG
17:30
V
17 °C 10 km+ 3.100 ft 270° 270° 5 kt METAR LFSL 251530Z AUTO 27005KT 190V320 9999 BKN031 BKN039 17/09 Q1015 TEMPO BKN015TCU
17:00
V
17 °C 10 km+ 3.100 ft 290° 290° 7 kt METAR LFSL 251500Z AUTO 29007KT 250V330 9999 BKN031 BKN038 17/10 Q1015 TEMPO BKN015TCU
16:30
V
17 °C 10 km+ 4.900 ft 280° 280° 5 kt METAR LFSL 251430Z AUTO 28005KT 220V310 9999 SCT028 BKN049 17/10 Q1015 NOSIG
16:00
V
16 °C 10 km+ 4.500 ft Var Var 3 kt METAR LFSL 251400Z AUTO VRB03KT 9999 FEW024 OVC045 16/10 Q1015 TEMPO BKN015TCU
15:30
V
17 °C 10 km+ 4.200 ft 260° 260° 5 kt METAR LFSL 251330Z AUTO 26005KT 160V310 9999 OVC042 17/10 Q1016 TEMPO BKN015TCU
15:00
V
15 °C 10 km+ 3.800 ft 220° 220° 7 kt METAR LFSL 251300Z AUTO 22007KT 180V290 9999 FEW019 SCT025 OVC038 15/10 Q1015 TEMPO BKN015TCU
14:30
V
17 °C 10 km+ 3.600 ft 210° 210° 3 kt METAR LFSL 251230Z AUTO 21003KT 130V300 9999 OVC036 17/11 Q1016 TEMPO BKN015TCU
14:00
V
15 °C 10 km+ 3.100 ft Var Var 2 kt METAR LFSL 251200Z AUTO VRB02KT 9999 FEW022 OVC031 15/10 Q1016 TEMPO BKN015TCU
13:30
M
15 °C 10 km+ 2.200 ft Var Var 3 kt METAR LFSL 251130Z AUTO VRB03KT 9999 BKN022 OVC027 15/09 Q1016 TEMPO 1000 SHRA SCT005 BKN010TCU
13:00
M
15 °C 10 km+ 2.000 ft Var Var 2 kt METAR LFSL 251100Z AUTO VRB02KT 9999 BKN020 OVC025 15/10 Q1016 TEMPO 1000 SHRA SCT005 BKN010TCU
12:30
M
14 °C 10 km+ 1.500 ft Var Var 3 kt METAR LFSL 251030Z AUTO VRB03KT 9999 OVC015 14/10 Q1016 TEMPO 1000 SHRA SCT005 BKN010TCU
12:00
M
13 °C 10 km+ 1.200 ft Var Var 3 kt METAR LFSL 251000Z AUTO VRB03KT 9999 OVC012 13/10 Q1016 TEMPO 1000 SHRA SCT005 BKN010TCU
11:30
M
13 °C 10 km+ 1.200 ft 310° 310° 3 kt METAR LFSL 250930Z AUTO 31003KT 270V340 9999 OVC012 13/10 Q1016 TEMPO 1000 SHRA SCT005 BKN010TCU
11:00
M
12 °C 10 km+ 1.000 ft 330° 330° 3 kt METAR LFSL 250900Z AUTO 33003KT 290V020 9999 OVC010 12/10 Q1016 TEMPO 1000 SHRA SCT005 BKN010TCU
10:30
I
11 °C 10 km+ 800 ft Var Var 1 kt METAR LFSL 250830Z AUTO VRB01KT 9999 OVC008 11/10 Q1016 TEMPO 1000 SHRA SCT005 BKN010TCU
10:00
I
11 °C 10 km+ 500 ft Var Var 2 kt METAR LFSL 250800Z AUTO VRB02KT 9999 BKN005 OVC009 11/11 Q1015 TEMPO 1000 BR
09:30
L
11 °C 10 km+ 200 ft Var Var 1 kt METAR LFSL 250730Z AUTO VRB01KT 9999 BKN002 OVC009 11/11 Q1015 TEMPO 1000 BR SCT004 BKN009
09:00
L
11 °C 6 km - Var Var 3 kt METAR LFSL 250700Z AUTO VRB03KT 6000 VV/// 11/11 Q1015 TEMPO 1000 BR SCT004 BKN009
08:30
L
11 °C 900 m - Var Var 2 kt METAR LFSL 250630Z AUTO VRB02KT 1000 0900 R29/1500U BCFG VV/// 11/10 Q1015 TEMPO SCT004 BKN009
08:00
L
11 °C 450 m - Var Var 2 kt METAR LFSL 250600Z AUTO VRB02KT 0450 R29/0600U FG VV/// 11/11 Q1015 TEMPO 1000 BR SCT004 BKN009
07:30
L
10 °C 700 m - Var Var 2 kt METAR LFSL 250530Z AUTO VRB02KT 0750 0700 R29/0800U FG VV/// 10/10 Q1014 TEMPO 1000 BR SCT004 BKN009
07:00
L
10 °C 10 km+ - 170° 170° 1 kt METAR LFSL 250500Z AUTO 17001KT 9999 VV/// 10/09 Q1014 TEMPO 1000 BR SCT002 BKN005
06:30
I
9 °C 3,5 km 1.000 ft Var 000° 0 kt METAR LFSL 250430Z AUTO 00000KT 9999 3500 FEW004 BKN010 09/09 Q1014 TEMPO 1000 BR
06:00
V
10 °C 10 km+ 8.600 ft Var 000° 0 kt METAR LFSL 250400Z AUTO 00000KT 9999 SCT010 SCT054 BKN086 10/10 Q1014 TEMPO 1000 BR SCT002 BKN005
05:30
M
11 °C 10 km+ 1.100 ft Var 000° 0 kt METAR LFSL 250330Z AUTO 00000KT 9999 BKN011 OVC054 11/10 Q1014 TEMPO 1000 BR SCT002 BKN005
05:00
V
11 °C 10 km+ 5.000 ft Var 000° 0 kt METAR LFSL 250300Z AUTO 00000KT 9999 FEW012 SCT019 BKN050 11/10 Q1014 TEMPO 1000 BR SCT002 BKN005
04:30
V
11 °C 10 km+ - Var 000° 0 kt METAR LFSL 250230Z AUTO 00000KT 9999 SCT020 SCT049 11/10 Q1014
04:00
V
11 °C 10 km+ 8.200 ft Var Var 2 kt METAR LFSL 250200Z AUTO VRB02KT 9999 FEW017 BKN082 11/10 Q1014
03:30
V
11 °C 10 km+ - Var 000° 0 kt METAR LFSL 250130Z AUTO 00000KT CAVOK 11/11 Q1014
03:00
V
11 °C 10 km+ 4.900 ft Var Var 3 kt METAR LFSL 250100Z AUTO VRB03KT 9999 SCT039 BKN049 BKN060 11/11 Q1014
02:30
M
11 °C 10 km+ 2.900 ft Var Var 2 kt METAR LFSL 250030Z AUTO VRB02KT 9999 BKN029 BKN034 OVC050 11/11 Q1014
02:00
V
11 °C 10 km+ - Var Var 1 kt METAR LFSL 250000Z AUTO VRB01KT 9999 FEW026 11/10 Q1014
01:30
V
12 °C 10 km+ - Var Var 2 kt METAR LFSL 242330Z AUTO VRB02KT CAVOK 12/11 Q1014
01:00
V
12 °C 10 km+ - Var Var 3 kt METAR LFSL 242300Z AUTO VRB03KT CAVOK 12/11 Q1014
00:30
V
12 °C 10 km+ 8.600 ft 290° 290° 4 kt METAR LFSL 242230Z AUTO 29004KT 260V320 9999 -RA FEW044 OVC086 12/11 Q1014
00:00
V
12 °C 10 km+ 7.000 ft Var Var 3 kt METAR LFSL 242200Z AUTO VRB03KT 9999 -RA SCT025/// BKN070/// BKN098/// //////TCU 12/11 Q1015

24. September 2022

Uhrzeit Code Wetter Temp. Sichtweite Wolkendecke Wind METAR/SPECI
23:30
V
12 °C 10 km+ 8.400 ft Var Var 1 kt METAR LFSL 242130Z AUTO VRB01KT 9999 FEW023/// SCT072/// BKN084/// //////TCU 12/11 Q1015
23:00
V
13 °C 10 km+ 8.400 ft Var Var 1 kt METAR LFSL 242100Z AUTO VRB01KT 9999 FEW038/// SCT044/// BKN084/// //////CB 13/11 Q1015
22:30
V
13 °C 10 km+ - Var Var 2 kt METAR LFSL 242030Z AUTO VRB02KT CAVOK 13/12 Q1015
22:00
V
13 °C 10 km+ 6.800 ft Var Var 3 kt METAR LFSL 242000Z AUTO VRB03KT 9999 FEW016 BKN068 BKN078 13/11 Q1015 TEMPO 3000 SHRA BKN020TCU
21:30
V
14 °C 10 km+ - 140° 140° 4 kt METAR LFSL 241930Z AUTO 14004KT 120V180 9999 -RA NSC 14/12 Q1014 TEMPO 3000 SHRA BKN020TCU
21:00
V
14 °C 10 km+ - 340° 340° 4 kt METAR LFSL 241900Z AUTO 34004KT 310V050 9999 //////TCU 14/11 Q1013 TEMPO 3000 SHRA BKN010 BKN020CB
20:30
V
14 °C 10 km+ - 320° 320° 5 kt METAR LFSL 241830Z AUTO 32005KT 290V350 9999 //////CB 14/12 Q1013 TEMPO 3000 SHRA BKN010 BKN020CB
20:00
V
14 °C 10 km+ 10.000 ft 270° 270° 5 kt METAR LFSL 241800Z AUTO 27005KT 210V310 9999 -RA FEW018/// SCT088/// BKN100/// //////CB 14/12 Q1013 TEMPO 3000 SHRA BKN010 BKN020CB
19:30
M
15 °C 10 km+ 1.800 ft 300° 300° 5 kt METAR LFSL 241730Z AUTO 30005KT 250V010 9999 BKN018/// BKN041/// OVC110/// //////CB 15/12 Q1014 TEMPO 3000 SHRA BKN010 BKN020CB
19:00
V
16 °C 10 km+ 6.600 ft 340° 340° 5 kt METAR LFSL 241700Z AUTO 34005KT 9999 FEW023/// BKN066/// BKN082/// //////CB 16/10 Q1013 TEMPO 3000 SHRA BKN010 BKN020CB
Ältere Daten

Wir und Dritte verfolgen dein Internetverhalten auf unserer Website mit Cookies. Wenn du fortfährst, gehen wir davon aus, dass du mit unserer Cookie-Richtlinie einverstanden bist. Mehr erfahren